Time;durP1;ratioP1;P1;durP2;ratioP2;P2;SDS_P1;SDS_P2;PMS_P1;PMS_P2;Temp;Humidity;BMP_temperature;BMP_pressure;BME280_temperature;BME280_humidity;BME280_pressure;Samples;Min_cycle;Max_cycle;Signal;HPM_P1;HPM_P2
2023/02/25 00:02:10;;;;;;;76.20;11.13;;;5.10;99.90;;;;;;4997706;28;20622;-84
2023/02/25 00:04:36;;;;;;;79.10;11.50;;;5.10;99.90;;;;;;4999514;28;20258;-84
2023/02/25 00:07:02;;;;;;;77.67;11.43;;;5.10;99.90;;;;;;4999477;28;20194;-84
2023/02/25 00:09:29;;;;;;;79.63;13.80;;;5.10;99.90;;;;;;4999387;28;20409;-85
2023/02/25 00:11:55;;;;;;;73.68;11.40;;;5.10;99.90;;;;;;4999899;28;20191;-84
2023/02/25 00:14:23;;;;;;;74.53;10.30;;;5.10;99.90;;;;;;4999736;28;20177;-84
2023/02/25 00:16:49;;;;;;;71.30;9.38;;;5.00;99.90;;;;;;4998706;28;20182;-84
2023/02/25 00:19:15;;;;;;;86.50;9.63;;;5.00;99.90;;;;;;4999054;28;20674;-84
2023/02/25 00:21:41;;;;;;;71.60;10.20;;;5.10;99.90;;;;;;4999926;28;20186;-85
2023/02/25 00:24:07;;;;;;;80.17;11.10;;;5.10;99.90;;;;;;5000286;28;20404;-84
2023/02/25 00:26:33;;;;;;;70.77;9.40;;;5.10;99.90;;;;;;4999884;28;20179;-84
2023/02/25 00:28:58;;;;;;;79.83;11.47;;;5.10;99.90;;;;;;5000570;28;20413;-84
2023/02/25 00:31:25;;;;;;;74.43;7.87;;;5.00;99.90;;;;;;5000903;28;20429;-84
2023/02/25 00:33:51;;;;;;;71.55;9.20;;;5.00;99.90;;;;;;4999225;28;20171;-84
2023/02/25 00:36:20;;;;;;;74.57;8.80;;;4.90;99.90;;;;;;5000883;28;20173;-84
2023/02/25 00:38:47;;;;;;;77.00;9.65;;;5.00;99.90;;;;;;4999316;28;20666;-84
2023/02/25 00:41:14;;;;;;;77.53;9.77;;;4.90;99.90;;;;;;5000485;28;20174;-84
2023/02/25 00:43:42;;;;;;;71.13;9.35;;;5.00;99.90;;;;;;4999227;28;20641;-84
2023/02/25 00:46:09;;;;;;;74.60;10.82;;;5.00;99.90;;;;;;4999875;28;20166;-84
2023/02/25 00:48:36;;;;;;;78.10;11.50;;;5.00;99.90;;;;;;4999571;28;20598;-84
2023/02/25 00:51:13;;;;;;;74.72;10.13;;;5.00;99.90;;;;;;4999637;28;20158;-85
2023/02/25 00:53:40;;;;;;;72.18;9.32;;;5.00;99.90;;;;;;4999695;28;20162;-84
2023/02/25 00:56:08;;;;;;;72.13;9.70;;;4.90;99.90;;;;;;4999788;28;20612;-84
2023/02/25 00:58:37;;;;;;;70.20;7.25;;;4.90;99.90;;;;;;4997757;28;20538;-85
2023/02/25 01:01:18;;;;;;;73.45;10.85;;;4.90;99.90;;;;;;4998121;28;20167;-84
2023/02/25 01:03:44;;;;;;;74.03;9.63;;;4.90;99.90;;;;;;4998384;28;20166;-84
2023/02/25 01:06:10;;;;;;;80.10;9.23;;;4.80;99.90;;;;;;4997944;28;20170;-84
2023/02/25 01:08:36;;;;;;;72.18;8.75;;;4.80;99.90;;;;;;4999512;28;20441;-84
2023/02/25 01:11:27;;;;;;;78.90;9.80;;;4.80;99.90;;;;;;4999228;28;20162;-84
2023/02/25 01:13:55;;;;;;;72.60;9.18;;;4.80;99.90;;;;;;4998939;28;20174;-84
2023/02/25 01:16:23;;;;;;;69.80;9.02;;;4.80;99.90;;;;;;4999474;28;20162;-84
2023/02/25 01:18:52;;;;;;;76.57;9.85;;;4.70;99.90;;;;;;4998873;28;20162;-84
2023/02/25 01:21:27;;;;;;;73.65;9.20;;;4.70;99.90;;;;;;4998772;28;20658;-84
2023/02/25 01:23:58;;;;;;;71.57;8.73;;;4.70;99.90;;;;;;4999427;28;20166;-84
2023/02/25 01:26:26;;;;;;;81.13;10.18;;;4.70;99.90;;;;;;4998459;28;20178;-84
2023/02/25 01:28:51;;;;;;;73.18;8.88;;;4.70;99.90;;;;;;4998056;28;20174;-84
2023/02/25 01:31:23;;;;;;;75.13;8.80;;;4.70;99.90;;;;;;4997058;28;20187;-84
2023/02/25 01:33:50;;;;;;;72.50;8.45;;;4.60;99.90;;;;;;4998570;28;20514;-84
2023/02/25 01:36:16;;;;;;;79.43;10.52;;;4.60;99.90;;;;;;4998307;28;20173;-84
2023/02/25 01:38:42;;;;;;;79.55;8.60;;;4.60;99.90;;;;;;4998814;28;20167;-84
2023/02/25 01:41:07;;;;;;;73.67;10.93;;;4.60;99.90;;;;;;4997020;28;20225;-84
2023/02/25 01:43:36;;;;;;;70.70;9.50;;;4.70;99.90;;;;;;4998081;28;20166;-84
2023/02/25 01:46:02;;;;;;;77.82;9.15;;;4.60;99.90;;;;;;4998572;28;20163;-84
2023/02/25 01:48:31;;;;;;;74.73;9.17;;;4.60;99.90;;;;;;4998234;28;20662;-84
2023/02/25 01:51:02;;;;;;;73.63;10.27;;;4.60;99.90;;;;;;4998484;28;20174;-84
2023/02/25 01:53:43;;;;;;;71.80;8.93;;;4.60;99.90;;;;;;4998698;28;20159;-84
2023/02/25 01:56:10;;;;;;;68.38;9.07;;;4.60;99.90;;;;;;4996812;28;20165;-84
2023/02/25 01:58:37;;;;;;;76.80;9.18;;;4.60;99.90;;;;;;4997838;28;20167;-84
2023/02/25 02:01:06;;;;;;;75.55;9.57;;;4.60;99.90;;;;;;4999249;28;20165;-85
2023/02/25 02:03:37;;;;;;;73.43;9.90;;;4.70;99.90;;;;;;5002355;28;20181;-84
2023/02/25 02:06:12;;;;;;;73.18;8.90;;;4.60;99.90;;;;;;5001996;28;20163;-84
2023/02/25 02:08:39;;;;;;;77.85;8.75;;;4.60;99.90;;;;;;5001789;28;20173;-84
2023/02/25 02:11:05;;;;;;;75.88;11.63;;;4.60;99.90;;;;;;5001827;28;20162;-84
2023/02/25 02:13:35;;;;;;;76.70;10.13;;;4.60;99.90;;;;;;5001589;28;20511;-84
2023/02/25 02:16:51;;;;;;;73.30;9.10;;;4.60;99.90;;;;;;5001344;28;20167;-84
2023/02/25 02:19:17;;;;;;;73.75;11.77;;;4.60;99.90;;;;;;4984239;28;20210;-84
2023/02/25 02:22:09;;;;;;;77.93;8.13;;;4.50;99.90;;;;;;5000632;28;20277;-84
2023/02/25 02:24:53;;;;;;;73.03;9.75;;;4.50;99.90;;;;;;5001445;28;20179;-84
2023/02/25 02:27:42;;;;;;;76.25;10.52;;;4.50;99.90;;;;;;5000104;28;20282;-84
2023/02/25 02:30:34;;;;;;;74.78;10.07;;;4.50;99.90;;;;;;5000003;28;20175;-84
2023/02/25 02:33:12;;;;;;;75.60;8.10;;;4.50;99.90;;;;;;5001185;28;20210;-84
2023/02/25 02:35:47;;;;;;;74.07;9.05;;;4.60;99.90;;;;;;5001490;28;20662;-84
2023/02/25 02:38:41;;;;;;;75.60;15.05;;;4.60;99.90;;;;;;5002004;28;20237;-84
2023/02/25 02:41:15;;;;;;;79.90;9.65;;;4.50;99.90;;;;;;5001381;28;20154;-85
2023/02/25 02:44:06;;;;;;;68.50;9.55;;;4.50;99.90;;;;;;4999584;28;20173;-84
2023/02/25 02:46:56;;;;;;;67.60;8.07;;;4.50;99.90;;;;;;5000788;28;20170;-84
2023/02/25 02:49:43;;;;;;;77.00;9.75;;;4.50;99.90;;;;;;4991515;28;20250;-84
2023/02/25 02:52:38;;;;;;;71.18;8.88;;;4.50;99.90;;;;;;5001150;28;20217;-84
2023/02/25 02:55:23;;;;;;;77.25;9.88;;;4.50;99.90;;;;;;5000813;28;20546;-84
2023/02/25 02:57:53;;;;;;;77.30;10.15;;;4.50;99.90;;;;;;5000970;28;20171;-84
2023/02/25 03:00:25;;;;;;;70.78;9.32;;;4.50;99.90;;;;;;5001682;28;20213;-85
2023/02/25 03:03:09;;;;;;;71.22;8.77;;;4.50;99.90;;;;;;5002887;28;20578;-84
2023/02/25 03:05:38;;;;;;;72.03;9.40;;;4.50;99.90;;;;;;5000778;28;20250;-84
2023/02/25 03:08:09;;;;;;;75.15;9.27;;;4.50;99.90;;;;;;5002875;28;20181;-84
2023/02/25 03:10:36;;;;;;;77.75;9.45;;;4.40;99.90;;;;;;5002345;28;20174;-84
2023/02/25 03:13:01;;;;;;;75.88;9.00;;;4.50;99.90;;;;;;5001244;28;20182;-85
2023/02/25 03:15:28;;;;;;;73.93;8.90;;;4.50;99.90;;;;;;5002085;28;20257;-84
2023/02/25 03:18:00;;;;;;;72.43;11.70;;;4.50;99.90;;;;;;5002549;28;20167;-84
2023/02/25 03:20:29;;;;;;;74.28;8.40;;;4.50;99.90;;;;;;5001924;28;20178;-84
2023/02/25 03:22:58;;;;;;;81.47;8.80;;;4.50;99.90;;;;;;5000035;28;20187;-84
2023/02/25 03:25:55;;;;;;;73.80;8.73;;;4.50;99.90;;;;;;4999452;28;20253;-84
2023/02/25 03:28:32;;;;;;;75.07;7.97;;;4.50;99.90;;;;;;5000490;28;20186;-84
2023/02/25 03:31:05;;;;;;;75.90;9.43;;;4.50;99.90;;;;;;4999090;28;20231;-84
2023/02/25 03:33:47;;;;;;;75.10;9.13;;;4.50;99.90;;;;;;5000046;28;20162;-84
2023/02/25 03:36:18;;;;;;;77.68;9.43;;;4.50;99.90;;;;;;4999122;28;20163;-85
2023/02/25 03:38:50;;;;;;;69.82;9.68;;;4.60;99.90;;;;;;4999245;28;20154;-84
2023/02/25 03:41:18;;;;;;;80.95;8.82;;;4.40;99.90;;;;;;4998550;28;20155;-84
2023/02/25 03:43:52;;;;;;;76.45;8.77;;;4.50;99.90;;;;;;4998982;28;20174;-84
2023/02/25 03:46:19;;;;;;;73.18;8.38;;;4.50;99.90;;;;;;4999911;28;20151;-84
2023/02/25 03:48:46;;;;;;;80.07;9.10;;;4.50;99.90;;;;;;4999919;28;20708;-84
2023/02/25 03:51:17;;;;;;;74.80;9.65;;;4.50;99.90;;;;;;4998568;28;20175;-84
2023/02/25 03:53:43;;;;;;;76.68;9.73;;;4.50;99.90;;;;;;5000206;28;20158;-85
2023/02/25 03:56:10;;;;;;;84.77;9.10;;;4.50;99.90;;;;;;5000899;28;20162;-84
2023/02/25 03:58:38;;;;;;;70.63;9.52;;;4.50;99.90;;;;;;4999668;28;20167;-84
2023/02/25 04:01:08;;;;;;;76.40;11.20;;;4.60;99.90;;;;;;4999225;28;20202;-84
2023/02/25 04:03:33;;;;;;;88.70;10.10;;;4.50;99.90;;;;;;4999201;28;20167;-84
2023/02/25 04:05:59;;;;;;;74.80;8.77;;;4.50;99.90;;;;;;4998053;28;20166;-85
2023/02/25 04:08:25;;;;;;;71.13;9.33;;;4.50;99.90;;;;;;5000061;28;20424;-85
2023/02/25 04:10:51;;;;;;;73.97;9.80;;;4.50;99.90;;;;;;4999616;28;20248;-85
2023/02/25 04:13:19;;;;;;;75.50;9.40;;;4.50;99.90;;;;;;4998930;28;20269;-84
2023/02/25 04:15:46;;;;;;;73.10;9.50;;;4.50;99.90;;;;;;4998189;28;20174;-84
2023/02/25 04:18:12;;;;;;;80.65;10.40;;;4.50;99.90;;;;;;4997782;28;20175;-85
2023/02/25 04:20:39;;;;;;;79.35;9.85;;;4.50;99.90;;;;;;4998910;28;20194;-84
2023/02/25 04:23:05;;;;;;;77.82;8.35;;;4.60;99.90;;;;;;4997911;28;20736;-84
2023/02/25 04:25:32;;;;;;;74.82;9.55;;;4.60;99.90;;;;;;4997390;28;20178;-85
2023/02/25 04:27:58;;;;;;;71.18;9.55;;;4.60;99.90;;;;;;4999649;28;20641;-84
2023/02/25 04:30:24;;;;;;;75.47;8.50;;;4.60;99.90;;;;;;4998186;28;20170;-84
2023/02/25 04:32:49;;;;;;;74.63;12.73;;;4.60;99.90;;;;;;4997399;28;20197;-84
2023/02/25 04:35:15;;;;;;;74.50;10.33;;;4.60;99.90;;;;;;4998378;28;20214;-85
2023/02/25 04:37:41;;;;;;;75.30;10.53;;;4.50;99.90;;;;;;4998726;28;20174;-84
2023/02/25 04:40:14;;;;;;;74.20;9.85;;;4.50;99.90;;;;;;4998797;28;21023;-84
2023/02/25 04:42:41;;;;;;;75.40;12.23;;;4.50;99.90;;;;;;4998290;28;20202;-84
2023/02/25 04:45:08;;;;;;;71.30;9.82;;;4.60;99.90;;;;;;4997727;28;20354;-84
2023/02/25 04:47:34;;;;;;;77.07;11.38;;;4.50;99.90;;;;;;4998921;28;20193;-84
2023/02/25 04:50:00;;;;;;;71.80;10.97;;;4.50;99.90;;;;;;4996862;28;20171;-84
2023/02/25 04:52:26;;;;;;;81.43;9.30;;;4.50;99.90;;;;;;4996893;28;20281;-85
2023/02/25 04:54:52;;;;;;;72.57;7.90;;;4.40;99.90;;;;;;4997769;28;20703;-85
2023/02/25 04:57:18;;;;;;;81.83;9.60;;;4.50;99.90;;;;;;4997885;28;20170;-84
2023/02/25 04:59:44;;;;;;;76.30;9.40;;;4.40;99.90;;;;;;4998894;28;20201;-84
2023/02/25 05:02:09;;;;;;;72.10;8.30;;;4.50;99.90;;;;;;4997345;28;20187;-84
2023/02/25 05:04:36;;;;;;;75.07;10.70;;;4.50;99.90;;;;;;4998855;28;20162;-84
2023/02/25 05:07:03;;;;;;;74.63;10.70;;;4.50;99.90;;;;;;4997651;28;20257;-84
2023/02/25 05:09:29;;;;;;;74.32;8.60;;;4.50;99.90;;;;;;4999270;28;20174;-85
2023/02/25 05:11:54;;;;;;;77.70;8.03;;;4.50;99.90;;;;;;4998508;28;20191;-84
2023/02/25 05:14:20;;;;;;;73.97;8.80;;;4.50;99.90;;;;;;4998710;28;20690;-85
2023/02/25 05:16:46;;;;;;;72.77;9.50;;;4.50;99.90;;;;;;4998420;28;20538;-84
2023/02/25 05:19:23;;;;;;;70.30;8.47;;;4.50;99.90;;;;;;4998667;28;20940;-84
2023/02/25 05:21:50;;;;;;;73.72;9.68;;;4.60;99.90;;;;;;4997519;28;20194;-84
2023/02/25 05:24:16;;;;;;;80.55;8.68;;;4.50;99.90;;;;;;4998352;28;20170;-84
2023/02/25 05:27:35;;;;;;;69.40;7.63;;;4.50;99.90;;;;;;5088568;22;20249;-82
2023/02/25 05:30:32;;;;;;;69.28;8.88;;;4.50;99.90;;;;;;4989866;28;20194;-82
2023/02/25 05:33:19;;;;;;;84.40;12.98;;;4.50;99.90;;;;;;5000260;28;20273;-83
2023/02/25 05:36:27;;;;;;;73.25;8.65;;;4.50;99.90;;;;;;5002095;28;20182;-82
2023/02/25 05:39:01;;;;;;;81.78;7.18;;;4.50;99.90;;;;;;4964003;29;20665;-82
2023/02/25 05:41:33;;;;;;;72.43;8.75;;;4.50;99.90;;;;;;4963568;28;20283;-82
2023/02/25 05:47:31;;;;;;;76.57;8.85;;;4.60;99.90;;;;;;4942612;29;20295;-82
2023/02/25 05:50:55;;;;;;;77.78;12.45;;;4.60;99.90;;;;;;4957354;29;20180;-83
2023/02/25 05:53:56;;;;;;;70.72;9.45;;;4.60;99.90;;;;;;4913445;29;20212;-82
2023/02/25 05:56:55;;;;;;;78.30;8.82;;;4.60;99.90;;;;;;5002977;28;20214;-82
2023/02/25 05:59:21;;;;;;;75.20;9.65;;;4.60;99.90;;;;;;5002807;28;20241;-82
2023/02/25 06:02:15;;;;;;;75.47;8.90;;;4.60;99.90;;;;;;5003650;28;20186;-82
2023/02/25 06:08:34;;;;;;;77.03;9.07;;;4.50;99.90;;;;;;4989308;28;20177;-82
2023/02/25 06:14:28;;;;;;;69.75;8.45;;;4.50;99.90;;;;;;4942063;29;20177;-82
2023/02/25 06:17:14;;;;;;;;;;;;;;;;;;;;;
2023/02/25 06:20:19;;;;;;;;;;;;;;;;;;;;;
2023/02/25 06:22:48;;;;;;;72.75;7.82;;;4.50;99.90;;;;;;5002210;28;20269;-82
2023/02/25 06:25:28;;;;;;;78.85;9.13;;;4.50;99.90;;;;;;5002307;28;20165;-82
2023/02/25 06:28:20;;;;;;;71.05;9.07;;;4.50;99.90;;;;;;5002534;28;20185;-82
2023/02/25 06:31:10;;;;;;;73.90;8.85;;;4.50;99.90;;;;;;4998854;28;20265;-82
2023/02/25 06:33:41;;;;;;;80.97;10.80;;;4.50;99.90;;;;;;5002517;28;20174;-82
2023/02/25 06:36:14;;;;;;;73.07;11.07;;;4.60;99.90;;;;;;5001535;28;20174;-82
2023/02/25 06:38:44;;;;;;;76.30;12.20;;;4.60;99.90;;;;;;5002426;28;20163;-82
2023/02/25 06:41:16;;;;;;;74.20;14.23;;;4.60;99.90;;;;;;5002705;28;20246;-82
2023/02/25 06:43:42;;;;;;;76.43;11.80;;;4.60;99.90;;;;;;5001781;28;20238;-82
2023/02/25 06:46:17;;;;;;;74.25;9.77;;;4.60;99.90;;;;;;5001777;28;20159;-82
2023/02/25 06:48:42;;;;;;;68.63;8.48;;;4.60;99.90;;;;;;5002095;28;20158;-82
2023/02/25 06:51:16;;;;;;;83.17;11.87;;;4.60;99.90;;;;;;5002140;28;20167;-82
2023/02/25 06:53:46;;;;;;;70.45;10.88;;;4.60;99.90;;;;;;5001975;28;20151;-82
2023/02/25 06:56:38;;;;;;;74.03;12.20;;;4.70;99.90;;;;;;5001725;28;20170;-82
2023/02/25 06:59:06;;;;;;;73.55;11.02;;;4.70;99.90;;;;;;4999952;28;20197;-82
2023/02/25 07:01:37;;;;;;;78.75;12.00;;;4.70;99.90;;;;;;5001835;28;20194;-82
2023/02/25 07:04:03;;;;;;;73.85;10.63;;;4.60;99.90;;;;;;5001198;28;20166;-82
2023/02/25 07:06:32;;;;;;;82.30;13.10;;;4.70;99.90;;;;;;5001442;28;20169;-82
2023/02/25 07:09:11;;;;;;;71.88;11.20;;;4.70;99.90;;;;;;5001685;28;20173;-82
2023/02/25 07:11:38;;;;;;;80.10;11.95;;;4.70;99.90;;;;;;5002024;28;20197;-83
2023/02/25 07:14:05;;;;;;;75.13;10.75;;;4.70;99.90;;;;;;5001136;28;20167;-82
2023/02/25 07:16:39;;;;;;;82.93;16.50;;;4.70;99.90;;;;;;5001046;28;20530;-82
2023/02/25 07:19:25;;;;;;;76.25;14.70;;;4.70;99.90;;;;;;5000878;28;20146;-82
2023/02/25 07:21:56;;;;;;;76.85;12.32;;;4.70;99.90;;;;;;5000978;28;20190;-82
2023/02/25 07:24:22;;;;;;;72.32;12.15;;;4.70;99.90;;;;;;5001077;28;20162;-82
2023/02/25 07:26:48;;;;;;;88.90;16.07;;;4.80;99.90;;;;;;4999692;28;20170;-82
2023/02/25 07:29:14;;;;;;;79.75;12.55;;;4.80;99.90;;;;;;5000888;28;20185;-82
2023/02/25 07:31:44;;;;;;;72.65;14.25;;;4.80;99.90;;;;;;5000464;28;20186;-82
2023/02/25 07:34:10;;;;;;;76.30;15.68;;;4.80;99.90;;;;;;5000349;28;20166;-82
2023/02/25 07:36:38;;;;;;;84.30;14.55;;;4.80;99.90;;;;;;5000895;28;20175;-82
2023/02/25 07:39:07;;;;;;;73.47;14.10;;;4.80;99.90;;;;;;5002123;28;20170;-81
2023/02/25 07:41:34;;;;;;;76.70;12.55;;;4.80;99.90;;;;;;5003065;28;20194;-81
2023/02/25 07:44:00;;;;;;;78.47;14.35;;;4.80;99.90;;;;;;5000479;28;20174;-82
2023/02/25 07:46:29;;;;;;;78.75;16.52;;;4.90;99.90;;;;;;4999534;28;20250;-82
2023/02/25 07:49:02;;;;;;;76.90;14.55;;;4.90;99.90;;;;;;5000094;28;20642;-82
2023/02/25 07:51:43;;;;;;;84.65;14.57;;;4.90;99.90;;;;;;5000167;28;20179;-82
2023/02/25 07:54:09;;;;;;;78.93;12.77;;;4.90;99.90;;;;;;4999821;28;20233;-82
2023/02/25 07:56:37;;;;;;;80.40;16.20;;;5.00;99.90;;;;;;4999602;28;20198;-82
2023/02/25 07:59:03;;;;;;;77.13;12.50;;;4.90;99.90;;;;;;4999073;28;20517;-82
2023/02/25 08:01:32;;;;;;;77.87;14.30;;;5.00;99.90;;;;;;4998288;28;20191;-82
2023/02/25 08:04:05;;;;;;;77.75;14.93;;;5.00;99.90;;;;;;4999061;28;20402;-82
2023/02/25 08:06:44;;;;;;;75.60;12.10;;;5.10;99.90;;;;;;4999421;28;20147;-82
2023/02/25 08:09:13;;;;;;;77.97;15.77;;;5.10;99.90;;;;;;4999426;28;20177;-81
2023/02/25 08:12:23;;;;;;;74.30;13.63;;;5.20;99.90;;;;;;4998992;28;20686;-81
2023/02/25 08:14:52;;;;;;;72.50;11.50;;;5.20;99.90;;;;;;4999498;28;20161;-82
2023/02/25 08:18:11;;;;;;;75.00;13.50;;;5.20;99.90;;;;;;5000313;28;20186;-82
2023/02/25 08:23:26;;;;;;;79.40;14.55;;;5.40;99.90;;;;;;5102468;22;20222;-83
2023/02/25 08:25:56;;;;;;;74.93;12.43;;;5.40;99.90;;;;;;4999686;28;20162;-82
2023/02/25 08:28:26;;;;;;;76.57;13.75;;;5.40;99.90;;;;;;4999607;28;20165;-82
2023/02/25 08:30:54;;;;;;;84.57;12.07;;;5.50;99.90;;;;;;4999618;28;20637;-82
2023/02/25 08:33:23;;;;;;;70.90;12.50;;;5.50;99.90;;;;;;4999730;28;20720;-83
2023/02/25 08:35:53;;;;;;;74.72;10.15;;;5.60;99.90;;;;;;4999641;28;20170;-82
2023/02/25 08:38:19;;;;;;;79.10;9.18;;;5.60;99.90;;;;;;4999963;28;20245;-82
2023/02/25 08:40:47;;;;;;;85.97;8.27;;;5.70;99.90;;;;;;4999344;28;20222;-82
2023/02/25 08:48:15;;;;;;;77.40;7.28;;;5.80;99.90;;;;;;5102327;22;20273;-82
2023/02/25 08:50:54;;;;;;;73.40;7.40;;;5.80;99.90;;;;;;4999727;28;20634;-82
2023/02/25 08:53:21;;;;;;;73.43;5.95;;;5.80;99.90;;;;;;4975397;28;20690;-83
2023/02/25 08:55:47;;;;;;;75.85;7.70;;;5.70;99.90;;;;;;4983540;28;20163;-83
2023/02/25 08:58:12;;;;;;;70.57;7.93;;;5.70;99.90;;;;;;4983059;28;20175;-82
2023/02/25 09:00:39;;;;;;;72.00;7.67;;;5.70;99.90;;;;;;4982618;28;20446;-82
2023/02/25 09:03:05;;;;;;;77.82;9.02;;;5.70;99.90;;;;;;4983086;28;20183;-82
2023/02/25 09:05:30;;;;;;;82.87;9.60;;;5.70;99.90;;;;;;4982164;28;20653;-82
2023/02/25 09:07:57;;;;;;;74.80;8.33;;;5.80;99.90;;;;;;4982745;28;20402;-82
2023/02/25 09:10:24;;;;;;;75.32;6.95;;;5.80;99.90;;;;;;4982177;28;20175;-83
2023/02/25 09:12:49;;;;;;;76.40;6.70;;;5.80;99.90;;;;;;4984897;28;20206;-83
2023/02/25 09:15:15;;;;;;;77.57;8.83;;;5.70;99.90;;;;;;4982447;28;20171;-83
2023/02/25 09:17:41;;;;;;;71.73;9.77;;;5.70;99.90;;;;;;4980811;28;20167;-82
2023/02/25 09:20:10;;;;;;;86.00;10.47;;;5.60;99.90;;;;;;4979760;28;20198;-82
2023/02/25 09:22:37;;;;;;;72.32;13.57;;;5.70;99.90;;;;;;4978589;28;20179;-82
2023/02/25 09:25:03;;;;;;;78.32;14.35;;;5.60;99.90;;;;;;4976749;28;20182;-82
2023/02/25 09:27:29;;;;;;;73.22;9.18;;;5.50;99.90;;;;;;4977723;28;20163;-81
2023/02/25 09:29:55;;;;;;;80.00;8.57;;;5.30;99.90;;;;;;4977847;28;20181;-81
2023/02/25 09:32:21;;;;;;;80.97;12.13;;;5.40;99.90;;;;;;4977992;28;20205;-81
2023/02/25 09:34:49;;;;;;;76.03;6.68;;;5.30;99.90;;;;;;4976775;28;20665;-81
2023/02/25 09:37:18;;;;;;;78.75;8.27;;;5.20;99.90;;;;;;4977538;28;20158;-81
2023/02/25 09:39:44;;;;;;;77.00;9.73;;;5.20;99.90;;;;;;4977853;28;20242;-81
2023/02/25 09:42:18;;;;;;;77.95;12.45;;;5.10;99.90;;;;;;4977447;28;20270;-81
2023/02/25 09:44:48;;;;;;;80.97;9.00;;;5.10;99.90;;;;;;4978014;28;20610;-81
2023/02/25 09:47:22;;;;;;;74.15;7.43;;;5.00;99.90;;;;;;4978065;28;20155;-81
2023/02/25 09:50:11;;;;;;;73.18;9.40;;;4.90;99.90;;;;;;4978177;28;20163;-81
2023/02/25 09:52:59;;;;;;;73.75;7.25;;;4.90;99.90;;;;;;4977497;28;20211;-81
2023/02/25 09:55:33;;;;;;;78.30;8.60;;;5.00;99.90;;;;;;4978131;28;20143;-82
2023/02/25 09:58:07;;;;;;;77.20;9.60;;;5.00;99.90;;;;;;4978158;28;20175;-82
2023/02/25 10:00:41;;;;;;;73.13;8.23;;;5.00;99.90;;;;;;4977134;28;20561;-82
2023/02/25 10:03:13;;;;;;;79.05;9.50;;;5.10;99.90;;;;;;4976872;28;20191;-82
2023/02/25 10:05:43;;;;;;;76.07;9.25;;;5.20;99.90;;;;;;4977831;28;20167;-82
2023/02/25 10:08:34;;;;;;;75.45;13.98;;;5.30;99.90;;;;;;4977649;28;20183;-81
2023/02/25 10:11:17;;;;;;;85.30;10.05;;;5.50;99.90;;;;;;4977821;28;20570;-81
2023/02/25 10:14:11;;;;;;;74.45;8.63;;;5.60;99.90;;;;;;4976325;28;20231;-82
2023/02/25 10:16:37;;;;;;;78.10;8.27;;;5.60;99.90;;;;;;4977947;28;20155;-81
2023/02/25 10:19:08;;;;;;;72.07;11.67;;;5.60;99.90;;;;;;4978222;28;20178;-82
2023/02/25 10:22:13;;;;;;;79.32;10.52;;;5.80;99.90;;;;;;4978481;28;20191;-81
2023/02/25 10:24:55;;;;;;;76.47;8.75;;;5.90;99.90;;;;;;4980836;28;20167;-82
2023/02/25 10:27:36;;;;;;;80.97;8.93;;;6.10;99.90;;;;;;4980953;28;20206;-81
2023/02/25 10:30:43;;;;;;;69.72;6.50;;;6.10;99.90;;;;;;4979456;28;20582;-81
2023/02/25 10:33:23;;;;;;;74.40;9.55;;;6.30;99.90;;;;;;4979060;28;20203;-82
2023/02/25 10:36:10;;;;;;;70.85;8.85;;;6.30;99.90;;;;;;4981163;28;20214;-81
2023/02/25 10:38:40;;;;;;;72.28;7.47;;;6.20;99.90;;;;;;4981238;28;20159;-81
2023/02/25 10:41:07;;;;;;;74.22;10.10;;;6.20;99.90;;;;;;4980633;28;20187;-82
2023/02/25 10:43:34;;;;;;;75.45;16.92;;;6.20;99.90;;;;;;4981670;28;20199;-81
2023/02/25 10:46:14;;;;;;;73.55;13.27;;;6.30;99.90;;;;;;4982193;28;20168;-82
2023/02/25 10:48:43;;;;;;;78.07;14.77;;;6.20;99.90;;;;;;4981256;28;20183;-82
2023/02/25 10:51:13;;;;;;;78.35;17.85;;;6.30;99.90;;;;;;4980335;28;20210;-82
2023/02/25 10:53:51;;;;;;;79.95;18.48;;;6.40;99.90;;;;;;4979442;28;20250;-82
2023/02/25 10:56:18;;;;;;;79.05;14.57;;;6.40;99.90;;;;;;4979173;28;20166;-82
2023/02/25 10:58:57;;;;;;;81.10;18.95;;;6.50;99.90;;;;;;4980966;28;20173;-82
2023/02/25 11:01:23;;;;;;;82.03;14.75;;;6.60;99.90;;;;;;4980386;28;20199;-82
2023/02/25 11:03:58;;;;;;;90.77;17.27;;;6.60;99.90;;;;;;4979391;28;20174;-82
2023/02/25 11:06:36;;;;;;;74.45;10.65;;;6.70;99.90;;;;;;4980493;28;20533;-82
2023/02/25 11:09:25;;;;;;;95.20;20.95;;;6.50;99.90;;;;;;4979548;28;20159;-82
2023/02/25 11:11:59;;;;;;;78.40;13.02;;;6.30;99.90;;;;;;4978792;28;20191;-81
2023/02/25 11:14:33;;;;;;;73.35;18.40;;;6.00;99.90;;;;;;4979791;28;20190;-81
2023/02/25 11:17:13;;;;;;;70.88;16.23;;;5.50;99.90;;;;;;4978890;28;20651;-83
2023/02/25 11:19:42;;;;;;;71.55;13.15;;;4.90;99.90;;;;;;4980323;28;20186;-83
2023/02/25 11:22:27;;;;;;;72.72;15.00;;;4.60;99.90;;;;;;4981014;28;20551;-83
2023/02/25 11:25:06;;;;;;;67.45;9.65;;;4.30;99.90;;;;;;4980794;28;20151;-83
2023/02/25 11:27:36;;;;;;;66.20;6.90;;;4.20;99.90;;;;;;5044178;22;20257;-86
2023/02/25 11:30:11;;;;;;;69.22;8.77;;;4.00;99.90;;;;;;5014927;28;20151;-86
2023/02/25 11:32:47;;;;;;;71.88;8.57;;;4.00;99.90;;;;;;5014338;28;20184;-87
2023/02/25 11:35:19;;;;;;;69.32;9.45;;;4.00;99.90;;;;;;5015879;28;20162;-87
2023/02/25 11:37:48;;;;;;;69.18;11.23;;;4.10;99.90;;;;;;5016314;28;20167;-87
2023/02/25 11:40:27;;;;;;;68.45;9.65;;;4.30;99.90;;;;;;5016000;28;20166;-87
2023/02/25 11:43:05;;;;;;;67.63;9.88;;;4.40;99.90;;;;;;5010784;28;20194;-87
2023/02/25 11:45:38;;;;;;;68.13;10.23;;;4.50;99.90;;;;;;5010372;28;20169;-87
2023/02/25 11:48:17;;;;;;;70.93;10.38;;;4.50;99.90;;;;;;5008113;28;20179;-87
2023/02/25 11:51:09;;;;;;;65.82;9.20;;;4.60;99.90;;;;;;5008277;28;20166;-87
2023/02/25 11:54:01;;;;;;;67.45;8.48;;;4.60;99.90;;;;;;5010530;28;20499;-86
2023/02/25 11:56:42;;;;;;;68.03;9.70;;;4.70;99.90;;;;;;5008367;28;20174;-87
2023/02/25 11:59:37;;;;;;;66.85;7.78;;;4.50;99.90;;;;;;5008864;28;20160;-86
2023/02/25 12:02:22;;;;;;;66.57;7.82;;;4.80;99.90;;;;;;5007632;28;20191;-86
2023/02/25 12:05:00;;;;;;;68.20;7.15;;;5.20;99.90;;;;;;5008010;28;20252;-87
2023/02/25 12:07:56;;;;;;;69.03;8.85;;;5.50;99.90;;;;;;5008570;28;20167;-86
2023/02/25 12:10:55;;;;;;;68.72;8.68;;;5.70;99.90;;;;;;5009101;28;20147;-86
2023/02/25 12:13:45;;;;;;;68.63;9.18;;;5.90;99.90;;;;;;5008532;28;20191;-86
2023/02/25 12:16:58;;;;;;;66.18;8.25;;;6.10;99.90;;;;;;5008705;28;20565;-86
2023/02/25 12:19:52;;;;;;;67.32;6.22;;;6.50;99.90;;;;;;4999310;28;20229;-87
2023/02/25 12:22:44;;;;;;;70.75;7.20;;;6.50;99.90;;;;;;5010253;28;20193;-86
2023/02/25 12:25:30;;;;;;;69.10;11.00;;;6.50;99.90;;;;;;5010086;28;20146;-86
2023/02/25 12:28:10;;;;;;;68.05;11.27;;;6.60;99.90;;;;;;5009780;28;20213;-85
2023/02/25 12:30:59;;;;;;;65.55;5.53;;;6.60;99.90;;;;;;5010619;28;20147;-86
2023/02/25 12:33:52;;;;;;;71.28;6.57;;;6.70;99.90;;;;;;5010191;28;20152;-86
2023/02/25 12:37:09;;;;;;;66.05;6.00;;;6.80;99.90;;;;;;5010324;28;20162;-86
2023/02/25 12:39:56;;;;;;;67.00;7.75;;;7.00;99.90;;;;;;4993835;28;20202;-86
2023/02/25 12:42:49;;;;;;;70.40;6.72;;;6.80;99.90;;;;;;5010722;28;20724;-85
2023/02/25 12:45:56;;;;;;;67.05;5.35;;;6.70;99.90;;;;;;5009398;28;20159;-85
2023/02/25 12:48:41;;;;;;;66.45;7.05;;;6.70;99.90;;;;;;5002772;28;20238;-85
2023/02/25 12:51:36;;;;;;;65.68;7.68;;;6.70;99.90;;;;;;5010776;28;20147;-85
2023/02/25 12:54:20;;;;;;;68.32;9.07;;;6.70;99.90;;;;;;5010473;28;20165;-85
2023/02/25 12:57:04;;;;;;;69.72;9.80;;;6.80;99.90;;;;;;5011663;28;20197;-86
2023/02/25 12:59:49;;;;;;;74.28;12.98;;;6.80;98.60;;;;;;5010877;28;20196;-86
2023/02/25 13:02:36;;;;;;;69.65;8.68;;;6.70;99.90;;;;;;5010633;28;20186;-85
2023/02/25 13:05:23;;;;;;;68.72;11.05;;;6.80;94.00;;;;;;5010029;28;20211;-86
2023/02/25 13:08:06;;;;;;;69.70;6.60;;;7.00;90.10;;;;;;5011285;28;20630;-84
2023/02/25 13:11:02;;;;;;;67.53;6.35;;;7.10;67.90;;;;;;5010861;28;20182;-85
2023/02/25 13:13:57;;;;;;;74.45;7.20;;;6.90;73.40;;;;;;5011101;28;20147;-84
2023/02/25 13:16:34;;;;;;;68.93;5.63;;;6.80;74.60;;;;;;5011730;28;20151;-85
2023/02/25 13:19:31;;;;;;;75.75;7.00;;;7.10;75.60;;;;;;5011933;28;20158;-84
2023/02/25 13:22:15;;;;;;;66.32;6.63;;;7.40;57.40;;;;;;5009746;28;20189;-84
2023/02/25 13:25:07;;;;;;;66.47;4.82;;;7.20;17.70;;;;;;5010732;28;20167;-85
2023/02/25 13:27:56;;;;;;;69.78;5.72;;;6.80;17.80;;;;;;5011199;28;20185;-84
2023/02/25 13:30:31;;;;;;;69.60;6.03;;;6.50;14.20;;;;;;5010685;28;20189;-84
2023/02/25 13:33:28;;;;;;;66.40;5.40;;;6.20;2.30;;;;;;5011125;28;20210;-84
2023/02/25 13:36:05;;;;;;;65.60;5.15;;;6.00;1.00;;;;;;5014175;28;20218;-84
2023/02/25 13:38:49;;;;;;;73.60;6.15;;;6.00;5.50;;;;;;5009029;28;20158;-84
2023/02/25 13:41:40;;;;;;;69.35;4.63;;;6.00;1.00;;;;;;5009484;28;20185;-84
2023/02/25 13:44:44;;;;;;;72.28;5.07;;;6.00;1.00;;;;;;5010229;28;20153;-84
2023/02/25 13:47:16;;;;;;;65.40;4.75;;;5.90;1.00;;;;;;5009996;28;20190;-84